Time;durP1;ratioP1;P1;durP2;ratioP2;P2;SDS_P1;SDS_P2;PMS_P1;PMS_P2;Temp;Humidity;BMP_temperature;BMP_pressure;BME280_temperature;BME280_humidity;BME280_pressure;Samples;Min_cycle;Max_cycle;Signal;HPM_P1;HPM_P2
2022/10/01 00:02:01;;;;;;;0.40;0.40;;;7.30;99.90;;;;;;5068345;28;20424;-68
2022/10/01 00:04:50;;;;;;;0.40;0.40;;;7.40;99.90;;;;;;5057604;28;20555;-68
2022/10/01 00:07:38;;;;;;;0.40;0.40;;;7.40;99.90;;;;;;5054235;28;20448;-68
2022/10/01 00:10:30;;;;;;;0.40;0.40;;;7.30;99.90;;;;;;5053837;28;20760;-68
2022/10/01 00:13:19;;;;;;;0.40;0.40;;;7.30;99.90;;;;;;5053347;28;20424;-68
2022/10/01 00:16:08;;;;;;;0.40;0.40;;;7.30;99.90;;;;;;5053422;28;20525;-67
2022/10/01 00:18:59;;;;;;;0.40;0.40;;;7.30;99.90;;;;;;5053397;28;20948;-68
2022/10/01 00:21:47;;;;;;;0.40;0.40;;;7.30;99.90;;;;;;5053444;28;20582;-68
2022/10/01 00:24:36;;;;;;;0.40;0.40;;;7.30;99.90;;;;;;5053647;28;20516;-68
2022/10/01 00:27:26;;;;;;;0.40;0.40;;;7.20;99.90;;;;;;5062132;28;20448;-68
2022/10/01 00:30:14;;;;;;;0.40;0.40;;;7.20;99.90;;;;;;5072418;28;20510;-68
2022/10/01 00:33:02;;;;;;;0.40;0.40;;;7.20;99.90;;;;;;5072653;28;20504;-68
2022/10/01 00:35:53;;;;;;;0.40;0.40;;;7.10;99.90;;;;;;5071896;28;20443;-68
2022/10/01 00:38:41;;;;;;;0.40;0.40;;;7.10;99.90;;;;;;5072182;28;20549;-68
2022/10/01 00:41:31;;;;;;;0.40;0.40;;;7.10;99.90;;;;;;5073732;28;20434;-67
2022/10/01 00:44:35;;;;;;;0.40;0.40;;;7.10;99.90;;;;;;5073835;28;20427;-68
2022/10/01 00:47:29;;;;;;;0.40;0.40;;;7.10;99.90;;;;;;5072640;28;20438;-68
2022/10/01 00:50:23;;;;;;;0.40;0.40;;;7.10;99.90;;;;;;5071963;28;20518;-68
2022/10/01 00:53:12;;;;;;;0.40;0.40;;;7.00;99.90;;;;;;5073249;28;20512;-68
2022/10/01 00:56:01;;;;;;;0.40;0.40;;;7.00;99.90;;;;;;5073640;28;20435;-67
2022/10/01 00:58:53;;;;;;;0.40;0.40;;;7.00;99.90;;;;;;5071139;28;20473;-68
2022/10/01 01:01:43;;;;;;;0.40;0.40;;;7.00;99.90;;;;;;5073212;28;20485;-68
2022/10/01 01:04:31;;;;;;;0.40;0.40;;;7.00;99.90;;;;;;5071939;28;20506;-68
2022/10/01 01:07:20;;;;;;;0.40;0.40;;;7.00;99.90;;;;;;5073050;28;20500;-68
2022/10/01 01:10:09;;;;;;;0.40;0.40;;;6.90;99.90;;;;;;5073386;28;20510;-68
2022/10/01 01:13:11;;;;;;;0.40;0.40;;;7.00;99.90;;;;;;5072598;28;20505;-68
2022/10/01 01:16:05;;;;;;;0.40;0.40;;;7.00;99.90;;;;;;5072746;28;20970;-67
2022/10/01 01:19:01;;;;;;;0.40;0.40;;;7.00;99.90;;;;;;5072954;28;20429;-68
2022/10/01 01:21:55;;;;;;;0.40;0.40;;;7.00;99.90;;;;;;5072344;28;20457;-68
2022/10/01 01:24:51;;;;;;;0.40;0.40;;;7.00;99.90;;;;;;5072379;28;20517;-67
2022/10/01 01:27:43;;;;;;;0.40;0.40;;;7.00;99.90;;;;;;5061527;28;21185;-68
2022/10/01 01:30:35;;;;;;;0.40;0.40;;;7.00;99.90;;;;;;5052585;28;20507;-68
2022/10/01 01:33:25;;;;;;;0.40;0.40;;;7.00;99.90;;;;;;5052753;28;20513;-68
2022/10/01 01:36:16;;;;;;;0.40;0.40;;;7.00;99.90;;;;;;5053687;28;20452;-68
2022/10/01 01:39:09;;;;;;;0.40;0.40;;;7.00;99.90;;;;;;5054621;28;20503;-66
2022/10/01 01:42:05;;;;;;;0.40;0.40;;;7.00;99.90;;;;;;5055940;28;20928;-68
2022/10/01 01:44:57;;;;;;;0.40;0.40;;;6.90;99.90;;;;;;5055673;28;21069;-67
2022/10/01 01:47:47;;;;;;;0.40;0.40;;;7.00;99.90;;;;;;5054153;28;20803;-68
2022/10/01 01:50:43;;;;;;;0.40;0.40;;;6.90;99.90;;;;;;5054123;28;20539;-68
2022/10/01 01:53:31;;;;;;;0.40;0.40;;;6.90;99.90;;;;;;5067617;28;20467;-68
2022/10/01 01:56:19;;;;;;;0.40;0.40;;;6.90;99.90;;;;;;5061211;28;20437;-68
2022/10/01 01:59:08;;;;;;;0.40;0.40;;;6.90;99.90;;;;;;5052274;28;20549;-67
2022/10/01 02:01:57;;;;;;;0.40;0.40;;;6.90;99.90;;;;;;5053035;28;20419;-67
2022/10/01 02:04:53;;;;;;;0.40;0.40;;;6.90;99.90;;;;;;5059691;28;20432;-68
2022/10/01 02:08:00;;;;;;;0.40;0.40;;;6.90;99.90;;;;;;5063773;28;20499;-68
2022/10/01 02:11:04;;;;;;;0.40;0.40;;;6.80;99.90;;;;;;5064313;28;20427;-67
2022/10/01 02:14:05;;;;;;;0.40;0.40;;;6.80;99.90;;;;;;5060414;28;20476;-68
2022/10/01 02:17:00;;;;;;;0.40;0.40;;;6.80;99.90;;;;;;5055617;28;20502;-68
2022/10/01 02:19:55;;;;;;;0.40;0.40;;;6.80;99.90;;;;;;5056403;28;20460;-68
2022/10/01 02:22:49;;;;;;;0.40;0.40;;;6.80;99.90;;;;;;5055059;28;20532;-68
2022/10/01 02:25:42;;;;;;;0.40;0.40;;;6.70;99.90;;;;;;5055060;28;20428;-68
2022/10/01 02:28:33;;;;;;;0.50;0.50;;;6.70;99.90;;;;;;5056033;28;20530;-68
2022/10/01 02:31:23;;;;;;;0.40;0.40;;;6.70;99.90;;;;;;5053441;28;20526;-68
2022/10/01 02:34:14;;;;;;;0.40;0.40;;;6.80;99.90;;;;;;5055360;28;20506;-67
2022/10/01 02:37:11;;;;;;;0.40;0.40;;;6.70;99.90;;;;;;5063688;28;20452;-68
2022/10/01 02:40:01;;;;;;;0.40;0.40;;;6.80;99.90;;;;;;5057921;28;20460;-68
2022/10/01 02:42:54;;;;;;;0.40;0.40;;;6.80;99.90;;;;;;5053962;28;20455;-68
2022/10/01 02:45:47;;;;;;;0.40;0.40;;;6.80;99.90;;;;;;5054910;28;20522;-68
2022/10/01 02:48:36;;;;;;;0.40;0.40;;;6.80;99.90;;;;;;5055174;28;20421;-67
2022/10/01 02:51:33;;;;;;;0.40;0.40;;;6.80;99.90;;;;;;5053917;28;21018;-68
2022/10/01 02:54:28;;;;;;;0.40;0.40;;;6.90;99.90;;;;;;5053745;28;20424;-68
2022/10/01 02:57:26;;;;;;;0.40;0.40;;;7.00;99.90;;;;;;5053382;28;20479;-68
2022/10/01 03:00:16;;;;;;;0.40;0.40;;;7.00;99.90;;;;;;5053484;28;20424;-68
2022/10/01 03:03:04;;;;;;;0.40;0.40;;;7.10;99.90;;;;;;5054389;28;20420;-67
2022/10/01 03:05:52;;;;;;;0.40;0.40;;;7.10;99.90;;;;;;5054309;28;20575;-67
2022/10/01 03:08:40;;;;;;;0.40;0.40;;;7.10;99.90;;;;;;5053510;28;20448;-67
2022/10/01 03:11:30;;;;;;;0.40;0.40;;;7.20;99.90;;;;;;5053093;28;20431;-68
2022/10/01 03:14:18;;;;;;;0.40;0.40;;;7.20;99.90;;;;;;5053272;28;20880;-68
2022/10/01 03:17:07;;;;;;;0.40;0.40;;;;;;;;;;5052095;28;20468;-67
2022/10/01 03:19:55;;;;;;;0.40;0.40;;;7.30;99.90;;;;;;5053258;28;20427;-68
2022/10/01 03:22:44;;;;;;;0.40;0.40;;;7.30;99.90;;;;;;5054894;28;20467;-68
2022/10/01 03:25:33;;;;;;;0.40;0.40;;;7.40;99.90;;;;;;5053421;28;20439;-68
2022/10/01 03:28:22;;;;;;;0.50;0.50;;;7.40;99.90;;;;;;5070499;28;20981;-67
2022/10/01 03:31:11;;;;;;;0.40;0.40;;;7.40;99.90;;;;;;5073613;28;20422;-68
2022/10/01 03:33:59;;;;;;;0.40;0.40;;;7.50;99.90;;;;;;5073936;28;20467;-68
2022/10/01 03:36:48;;;;;;;0.40;0.40;;;7.60;99.90;;;;;;5094764;23;20524;-69
2022/10/01 03:39:37;;;;;;;0.40;0.40;;;7.60;99.90;;;;;;5064498;28;20497;-69
2022/10/01 03:42:25;;;;;;;0.40;0.40;;;7.60;99.90;;;;;;5054577;28;20432;-69
2022/10/01 03:45:15;;;;;;;0.40;0.40;;;7.70;99.90;;;;;;5054474;28;20852;-69
2022/10/01 03:48:03;;;;;;;0.40;0.40;;;7.80;99.90;;;;;;5072122;28;20460;-70
2022/10/01 03:50:55;;;;;;;0.40;0.40;;;7.90;99.90;;;;;;5074269;28;20416;-71
2022/10/01 03:53:43;;;;;;;0.50;0.50;;;8.00;99.90;;;;;;5057116;28;20970;-69
2022/10/01 03:56:32;;;;;;;0.40;0.40;;;8.10;99.90;;;;;;5055193;28;20448;-69
2022/10/01 03:59:20;;;;;;;0.40;0.40;;;8.20;99.90;;;;;;5054999;28;20486;-69
2022/10/01 04:02:09;;;;;;;0.40;0.40;;;8.20;99.90;;;;;;5035478;28;20479;-69
2022/10/01 04:04:58;;;;;;;0.43;0.43;;;8.20;99.90;;;;;;5034568;28;20425;-69
2022/10/01 04:07:47;;;;;;;0.70;0.70;;;8.20;99.90;;;;;;5034475;28;20519;-69
2022/10/01 04:10:35;;;;;;;0.40;0.40;;;8.30;99.90;;;;;;5036031;28;20482;-69
2022/10/01 04:13:23;;;;;;;0.40;0.40;;;8.30;99.90;;;;;;5034482;28;20417;-69
2022/10/01 04:16:12;;;;;;;0.40;0.40;;;8.40;99.90;;;;;;5034660;28;20421;-69
2022/10/01 04:19:01;;;;;;;0.40;0.40;;;8.40;99.90;;;;;;5033986;28;20433;-70
2022/10/01 04:21:50;;;;;;;0.70;0.70;;;8.40;99.90;;;;;;5034532;28;20563;-69
2022/10/01 04:24:38;;;;;;;0.40;0.40;;;8.40;99.90;;;;;;5033765;28;20519;-68
2022/10/01 04:27:26;;;;;;;0.40;0.40;;;8.40;99.90;;;;;;5033760;28;20515;-70
2022/10/01 04:30:15;;;;;;;0.40;0.40;;;8.40;99.90;;;;;;5033493;28;20564;-68
2022/10/01 04:33:04;;;;;;;0.40;0.40;;;8.40;99.90;;;;;;5034029;28;20458;-68
2022/10/01 04:35:53;;;;;;;0.40;0.40;;;8.40;99.90;;;;;;5035470;28;20429;-69
2022/10/01 04:38:41;;;;;;;0.40;0.40;;;8.50;99.90;;;;;;5034139;28;20464;-69
2022/10/01 04:41:30;;;;;;;0.40;0.40;;;8.50;99.90;;;;;;5033891;28;20432;-69
2022/10/01 04:44:19;;;;;;;0.87;0.87;;;8.50;99.90;;;;;;5033477;28;21019;-68
2022/10/01 04:47:08;;;;;;;0.60;0.60;;;8.50;99.90;;;;;;5033750;28;20558;-69
2022/10/01 04:49:56;;;;;;;0.40;0.40;;;8.60;99.90;;;;;;5035030;28;20455;-69
2022/10/01 04:52:46;;;;;;;0.40;0.40;;;8.60;99.90;;;;;;5034000;28;20420;-68
2022/10/01 04:55:34;;;;;;;1.57;1.43;;;8.60;99.90;;;;;;5033580;28;20516;-68
2022/10/01 04:58:22;;;;;;;0.40;0.40;;;8.60;99.90;;;;;;5033463;28;20467;-68
2022/10/01 05:01:10;;;;;;;0.40;0.40;;;8.60;99.90;;;;;;5033444;28;20468;-68
2022/10/01 05:03:59;;;;;;;0.40;0.40;;;8.60;99.90;;;;;;5033489;28;20456;-69
2022/10/01 05:06:47;;;;;;;0.40;0.40;;;8.60;99.90;;;;;;5033701;28;20456;-69
2022/10/01 05:09:36;;;;;;;0.40;0.40;;;8.70;99.90;;;;;;5033322;28;20421;-69
2022/10/01 05:12:25;;;;;;;0.40;0.40;;;8.70;99.90;;;;;;5033021;28;20901;-69
2022/10/01 05:15:14;;;;;;;0.40;0.40;;;8.70;99.90;;;;;;5033344;28;20482;-69
2022/10/01 05:18:02;;;;;;;0.40;0.40;;;8.80;99.90;;;;;;5032283;28;20473;-69
2022/10/01 05:20:50;;;;;;;0.40;0.40;;;8.80;99.90;;;;;;5032555;28;20798;-70
2022/10/01 05:23:39;;;;;;;0.40;0.40;;;8.80;99.90;;;;;;5034120;28;20453;-69
2022/10/01 05:26:30;;;;;;;0.40;0.40;;;8.80;99.90;;;;;;5034428;28;20577;-69
2022/10/01 05:29:19;;;;;;;0.40;0.40;;;8.90;99.90;;;;;;5053420;28;20488;-70
2022/10/01 05:32:07;;;;;;;0.40;0.40;;;8.90;99.90;;;;;;5054116;28;20880;-69
2022/10/01 05:34:55;;;;;;;0.40;0.40;;;8.90;99.90;;;;;;5053216;28;20421;-69
2022/10/01 05:37:43;;;;;;;0.40;0.40;;;9.00;99.90;;;;;;5053390;28;20987;-69
2022/10/01 05:40:32;;;;;;;0.40;0.40;;;9.00;99.90;;;;;;5054760;28;21026;-69
2022/10/01 05:43:21;;;;;;;0.50;0.50;;;9.00;99.90;;;;;;5057880;28;20958;-69
2022/10/01 05:46:10;;;;;;;0.40;0.40;;;9.20;99.90;;;;;;5058132;28;20428;-69
2022/10/01 05:48:58;;;;;;;0.40;0.40;;;9.10;99.90;;;;;;5057653;28;21058;-69
2022/10/01 05:51:46;;;;;;;0.40;0.40;;;9.30;99.90;;;;;;5057551;28;20920;-69
2022/10/01 05:54:34;;;;;;;0.40;0.40;;;9.40;99.90;;;;;;5057816;28;20448;-69
2022/10/01 05:57:22;;;;;;;0.40;0.40;;;9.50;99.90;;;;;;5058163;28;20444;-69
2022/10/01 06:00:13;;;;;;;0.40;0.40;;;9.50;99.90;;;;;;5058293;28;21042;-69
2022/10/01 06:03:03;;;;;;;0.40;0.40;;;9.50;99.90;;;;;;5058006;28;21017;-69
2022/10/01 06:05:52;;;;;;;0.50;0.50;;;9.50;99.90;;;;;;5058459;28;20428;-69
2022/10/01 06:08:42;;;;;;;0.40;0.40;;;9.50;99.90;;;;;;5058356;28;21000;-69
2022/10/01 06:11:30;;;;;;;0.40;0.40;;;9.50;99.90;;;;;;5057538;28;20466;-70
2022/10/01 06:14:18;;;;;;;0.40;0.40;;;9.60;99.90;;;;;;5056081;28;20460;-69
2022/10/01 06:17:08;;;;;;;0.40;0.40;;;9.60;99.90;;;;;;5058077;28;20550;-70
2022/10/01 06:19:56;;;;;;;0.40;0.40;;;9.70;99.90;;;;;;5057297;28;21005;-70
2022/10/01 06:22:52;;;;;;;0.40;0.40;;;9.70;99.90;;;;;;5056051;28;20424;-69
2022/10/01 06:25:42;;;;;;;0.40;0.40;;;9.80;99.90;;;;;;5055838;28;20456;-70
2022/10/01 06:28:31;;;;;;;0.40;0.40;;;9.90;99.90;;;;;;5055536;28;20545;-69
2022/10/01 06:31:20;;;;;;;2.50;1.47;;;10.00;99.90;;;;;;5055505;28;20936;-70
2022/10/01 06:34:09;;;;;;;0.40;0.40;;;10.00;99.90;;;;;;5059054;28;20430;-69
2022/10/01 06:36:58;;;;;;;0.40;0.40;;;10.10;99.90;;;;;;5064140;28;20804;-69
2022/10/01 06:39:46;;;;;;;0.40;0.40;;;10.10;99.90;;;;;;5061508;28;20441;-69
2022/10/01 06:42:34;;;;;;;0.40;0.40;;;10.10;99.90;;;;;;5064206;28;20425;-69
2022/10/01 06:45:22;;;;;;;0.40;0.40;;;10.10;99.90;;;;;;5062530;28;20474;-69
2022/10/01 06:48:13;;;;;;;0.40;0.40;;;10.10;99.90;;;;;;5063335;28;20484;-69
2022/10/01 06:51:03;;;;;;;0.40;0.40;;;10.20;99.90;;;;;;5062523;28;20456;-69
2022/10/01 06:53:51;;;;;;;0.40;0.40;;;10.10;99.90;;;;;;5063248;28;20470;-69
2022/10/01 06:56:40;;;;;;;0.40;0.40;;;10.20;99.90;;;;;;5062832;28;20526;-69
2022/10/01 06:59:28;;;;;;;0.40;0.40;;;10.20;99.90;;;;;;5061665;28;20416;-69
2022/10/01 07:02:26;;;;;;;0.50;0.50;;;10.30;99.90;;;;;;5062658;28;20540;-69
2022/10/01 07:05:15;;;;;;;0.40;0.40;;;10.30;99.90;;;;;;5062933;28;20428;-69
2022/10/01 07:08:05;;;;;;;0.50;0.50;;;10.40;99.90;;;;;;5062553;28;20487;-69
2022/10/01 07:10:59;;;;;;;0.63;0.63;;;10.40;99.90;;;;;;5055502;28;20896;-70
2022/10/01 07:13:47;;;;;;;0.80;0.80;;;10.50;99.90;;;;;;5055055;28;20482;-70
2022/10/01 07:16:41;;;;;;;0.40;0.40;;;10.60;99.90;;;;;;5054866;28;20525;-70
2022/10/01 07:19:30;;;;;;;0.50;0.50;;;10.70;99.90;;;;;;5054643;28;20420;-70
2022/10/01 07:22:19;;;;;;;0.40;0.40;;;10.70;99.90;;;;;;5054710;28;20514;-69
2022/10/01 07:25:09;;;;;;;0.40;0.40;;;10.80;99.90;;;;;;5054756;28;20428;-69
2022/10/01 07:27:59;;;;;;;0.40;0.40;;;10.90;99.90;;;;;;5054886;28;20510;-69
2022/10/01 07:30:58;;;;;;;0.40;0.40;;;10.90;99.90;;;;;;5053619;28;20421;-69
2022/10/01 07:33:47;;;;;;;0.40;0.40;;;11.00;99.90;;;;;;5057501;28;20511;-70
2022/10/01 07:36:35;;;;;;;0.40;0.40;;;11.10;99.90;;;;;;5069741;28;21044;-70
2022/10/01 07:39:23;;;;;;;0.40;0.40;;;11.20;99.90;;;;;;5067071;28;20465;-70
2022/10/01 07:42:13;;;;;;;0.50;0.50;;;11.30;99.90;;;;;;5055343;28;20542;-70
2022/10/01 07:45:03;;;;;;;0.40;0.40;;;11.40;99.90;;;;;;5054436;28;20844;-70
2022/10/01 07:47:55;;;;;;;0.90;0.90;;;11.50;99.90;;;;;;5053148;28;20586;-70
2022/10/01 07:50:44;;;;;;;0.50;0.50;;;11.60;99.90;;;;;;5052912;28;20555;-70
2022/10/01 07:53:32;;;;;;;0.40;0.40;;;11.70;99.90;;;;;;5053940;28;20424;-70
2022/10/01 07:56:20;;;;;;;0.70;0.70;;;11.90;99.90;;;;;;5053601;28;20420;-70
2022/10/01 07:59:10;;;;;;;0.40;0.40;;;11.90;99.90;;;;;;5052979;28;20510;-70
2022/10/01 08:01:59;;;;;;;24.77;10.90;;;12.00;99.90;;;;;;5054363;28;20806;-69
2022/10/01 08:07:58;;;;;;;0.40;0.40;;;12.10;99.90;;;;;;5054043;28;20444;-69
2022/10/01 08:10:48;;;;;;;0.50;0.50;;;12.30;99.90;;;;;;5053893;28;20460;-69
2022/10/01 08:13:37;;;;;;;2.87;2.77;;;12.40;99.90;;;;;;5052505;28;20424;-69
2022/10/01 08:16:27;;;;;;;0.50;0.50;;;12.50;99.90;;;;;;5052470;28;20428;-70
2022/10/01 08:19:16;;;;;;;0.40;0.40;;;12.50;99.90;;;;;;5053079;28;20510;-70
2022/10/01 08:22:04;;;;;;;0.87;0.63;;;12.60;99.90;;;;;;5053576;28;20506;-69
2022/10/01 08:24:53;;;;;;;0.40;0.40;;;12.60;99.90;;;;;;5053331;28;20468;-70
2022/10/01 08:27:41;;;;;;;0.50;0.50;;;12.60;99.90;;;;;;5052734;28;20448;-69
2022/10/01 08:30:30;;;;;;;0.60;0.60;;;12.60;99.90;;;;;;5053413;28;20901;-69
2022/10/01 08:33:19;;;;;;;0.70;0.60;;;12.70;99.90;;;;;;5054700;28;20482;-69
2022/10/01 08:36:10;;;;;;;0.40;0.40;;;12.70;99.90;;;;;;5053348;28;20539;-69
2022/10/01 08:38:58;;;;;;;0.90;0.90;;;12.90;99.90;;;;;;5053424;28;20889;-71
2022/10/01 08:41:57;;;;;;;0.83;0.83;;;13.00;99.90;;;;;;5053748;28;20478;-70
2022/10/01 08:44:46;;;;;;;0.40;0.40;;;13.10;99.90;;;;;;5053772;28;20424;-70
2022/10/01 08:47:39;;;;;;;0.40;0.40;;;13.30;99.90;;;;;;5054008;28;20452;-70
2022/10/01 08:50:46;;;;;;;0.40;0.40;;;13.50;99.90;;;;;;5053130;28;20455;-69
2022/10/01 08:53:39;;;;;;;0.40;0.40;;;13.60;99.90;;;;;;5053137;28;20451;-69
2022/10/01 08:56:31;;;;;;;0.40;0.40;;;13.70;99.90;;;;;;5052827;28;20479;-69
2022/10/01 08:59:32;;;;;;;0.40;0.40;;;13.70;99.90;;;;;;5052585;28;20462;-70
2022/10/01 09:02:24;;;;;;;0.40;0.40;;;13.90;99.90;;;;;;5053115;28;20428;-69
2022/10/01 09:05:21;;;;;;;0.67;0.67;;;14.00;99.90;;;;;;5052621;28;20512;-70
2022/10/01 09:08:21;;;;;;;0.97;0.97;;;14.20;99.90;;;;;;5052503;28;20480;-69
2022/10/01 09:11:20;;;;;;;0.40;0.40;;;14.10;99.90;;;;;;5052368;28;20456;-69
2022/10/01 09:14:33;;;;;;;0.40;0.40;;;14.20;99.90;;;;;;5053450;28;20447;-70
2022/10/01 09:17:47;;;;;;;0.40;0.40;;;14.40;99.90;;;;;;5057271;28;20541;-70
2022/10/01 09:20:40;;;;;;;2.10;2.00;;;14.60;99.90;;;;;;5056048;28;20616;-69
2022/10/01 09:23:31;;;;;;;1.37;0.83;;;14.60;99.90;;;;;;5056585;28;20585;-70
2022/10/01 09:26:19;;;;;;;0.40;0.40;;;14.60;99.90;;;;;;5057619;28;20473;-70
2022/10/01 09:29:17;;;;;;;0.53;0.53;;;14.60;99.90;;;;;;5056463;28;20513;-70
2022/10/01 09:32:06;;;;;;;0.40;0.40;;;14.40;99.90;;;;;;5056066;28;20935;-69
2022/10/01 09:34:54;;;;;;;0.40;0.40;;;14.20;99.90;;;;;;5056121;28;20436;-69
2022/10/01 09:37:53;;;;;;;0.70;0.70;;;13.80;99.90;;;;;;5091683;23;20487;-78
2022/10/01 09:40:49;;;;;;;1.53;0.77;;;13.70;99.90;;;;;;5083688;28;20519;-75
2022/10/01 09:43:40;;;;;;;3.87;1.80;;;13.60;99.90;;;;;;5081680;28;20435;-74
2022/10/01 09:46:28;;;;;;;0.40;0.40;;;13.50;99.90;;;;;;5081589;28;20500;-77
2022/10/01 09:49:30;;;;;;;0.50;0.50;;;13.50;99.90;;;;;;5081314;28;20431;-74
2022/10/01 09:52:25;;;;;;;0.50;0.50;;;13.50;99.90;;;;;;5083193;28;20419;-76
2022/10/01 09:55:22;;;;;;;0.60;0.60;;;13.50;99.90;;;;;;5082703;28;20455;-76
2022/10/01 09:58:17;;;;;;;0.40;0.40;;;13.50;99.90;;;;;;5082723;28;20450;-77
2022/10/01 10:01:16;;;;;;;0.80;0.80;;;13.50;99.90;;;;;;5081010;28;20509;-76
2022/10/01 10:04:04;;;;;;;0.40;0.40;;;13.50;99.90;;;;;;5080430;28;20473;-74
2022/10/01 10:07:05;;;;;;;0.50;0.50;;;13.40;99.90;;;;;;5080248;28;20970;-74
2022/10/01 10:09:53;;;;;;;0.50;0.50;;;13.40;99.90;;;;;;5075902;28;20541;-74
2022/10/01 10:12:42;;;;;;;0.50;0.50;;;13.30;99.90;;;;;;5075131;28;20431;-76
2022/10/01 10:15:32;;;;;;;0.40;0.40;;;13.00;99.90;;;;;;5076218;28;20424;-75
2022/10/01 10:18:27;;;;;;;0.50;0.50;;;12.80;99.90;;;;;;5078143;28;20449;-76
2022/10/01 10:21:20;;;;;;;0.50;0.50;;;12.80;99.90;;;;;;5077249;28;20415;-75
2022/10/01 10:24:23;;;;;;;1.93;1.83;;;12.80;99.90;;;;;;5077499;28;20481;-74
2022/10/01 10:27:24;;;;;;;0.40;0.40;;;12.70;99.90;;;;;;5077712;28;20482;-74
2022/10/01 10:30:15;;;;;;;1.13;0.70;;;12.60;99.90;;;;;;5078327;28;20939;-76
2022/10/01 10:33:07;;;;;;;0.40;0.40;;;12.60;99.90;;;;;;5078297;28;20513;-74
2022/10/01 10:36:01;;;;;;;1.27;1.13;;;12.60;99.90;;;;;;5078525;28;20455;-73
2022/10/01 10:38:52;;;;;;;0.87;0.77;;;12.60;99.90;;;;;;5075804;28;20546;-74
2022/10/01 10:41:44;;;;;;;0.40;0.40;;;12.70;99.90;;;;;;5078550;28;20451;-75
2022/10/01 10:44:38;;;;;;;0.40;0.40;;;12.70;99.90;;;;;;5077828;28;20492;-74
2022/10/01 10:47:30;;;;;;;0.40;0.40;;;12.80;99.90;;;;;;5077263;28;20492;-75
2022/10/01 10:50:29;;;;;;;0.40;0.40;;;13.00;99.90;;;;;;5077892;28;20458;-74
2022/10/01 10:53:22;;;;;;;0.70;0.70;;;13.10;99.90;;;;;;5075809;28;20514;-76
2022/10/01 10:56:18;;;;;;;0.60;0.60;;;13.10;99.90;;;;;;5076277;28;20484;-76
2022/10/01 10:59:08;;;;;;;0.50;0.50;;;13.10;99.90;;;;;;5076246;28;20566;-75
2022/10/01 11:01:56;;;;;;;0.40;0.40;;;13.00;99.90;;;;;;5077094;28;20824;-74
2022/10/01 11:04:45;;;;;;;0.50;0.50;;;12.90;99.90;;;;;;5077779;28;20431;-74
2022/10/01 11:07:35;;;;;;;8.43;2.13;;;12.90;99.90;;;;;;5077588;28;20534;-75
2022/10/01 11:10:33;;;;;;;0.40;0.40;;;13.00;99.90;;;;;;5077920;28;20503;-75
2022/10/01 11:13:44;;;;;;;0.50;0.50;;;13.10;99.90;;;;;;5077241;28;20481;-75
2022/10/01 11:16:49;;;;;;;0.40;0.40;;;13.10;99.90;;;;;;5077810;28;20554;-77
2022/10/01 11:19:51;;;;;;;0.43;0.43;;;13.10;99.90;;;;;;5077030;28;20455;-74
2022/10/01 11:22:53;;;;;;;0.70;0.70;;;13.10;99.90;;;;;;5077616;28;20415;-74
2022/10/01 11:25:51;;;;;;;1.03;1.03;;;13.00;99.90;;;;;;5078351;28;20430;-73
2022/10/01 11:28:50;;;;;;;0.50;0.50;;;13.00;99.90;;;;;;5056206;28;20495;-74
2022/10/01 11:31:49;;;;;;;0.40;0.40;;;13.00;99.90;;;;;;5056738;28;20467;-73
2022/10/01 11:35:00;;;;;;;0.40;0.40;;;13.00;99.90;;;;;;5056149;28;20432;-74
2022/10/01 11:38:18;;;;;;;0.40;0.40;;;12.90;99.90;;;;;;5056476;28;20456;-74
2022/10/01 11:41:20;;;;;;;0.60;0.60;;;12.90;99.90;;;;;;5056314;28;20431;-75
2022/10/01 11:44:14;;;;;;;0.40;0.40;;;12.90;99.90;;;;;;5056940;28;20509;-74
2022/10/01 11:47:07;;;;;;;0.40;0.40;;;12.90;99.90;;;;;;5057325;28;20448;-75
2022/10/01 11:49:59;;;;;;;7.40;0.80;;;12.80;99.90;;;;;;5056044;28;20511;-74
2022/10/01 11:52:53;;;;;;;0.40;0.40;;;12.70;99.90;;;;;;5055507;28;20452;-74
2022/10/01 11:58:56;;;;;;;0.40;0.40;;;12.70;99.90;;;;;;5055722;28;20452;-75
2022/10/01 12:02:03;;;;;;;0.50;0.50;;;12.70;99.90;;;;;;5091770;28;20549;-76
2022/10/01 12:04:56;;;;;;;0.40;0.40;;;12.70;99.90;;;;;;5103883;28;20431;-74
2022/10/01 12:07:50;;;;;;;0.40;0.40;;;12.60;99.90;;;;;;5120718;28;20451;-74
2022/10/01 12:10:41;;;;;;;0.50;0.50;;;12.60;99.90;;;;;;5150380;27;20904;-75
2022/10/01 12:13:33;;;;;;;0.50;0.50;;;12.40;99.90;;;;;;5154110;22;20538;-69
2022/10/01 12:16:29;;;;;;;0.50;0.50;;;12.40;99.90;;;;;;5113022;28;20476;-68
2022/10/01 12:19:23;;;;;;;0.50;0.50;;;12.30;99.90;;;;;;5110495;28;20510;-68
2022/10/01 12:22:16;;;;;;;0.40;0.40;;;12.20;99.90;;;;;;5112715;28;20410;-68
2022/10/01 12:25:12;;;;;;;0.50;0.50;;;12.20;99.90;;;;;;5092124;28;20469;-69
2022/10/01 12:28:06;;;;;;;0.40;0.40;;;12.20;99.90;;;;;;5093877;28;20434;-68
2022/10/01 12:31:01;;;;;;;0.40;0.40;;;12.30;99.90;;;;;;5092381;28;20514;-68
2022/10/01 12:34:02;;;;;;;0.47;0.47;;;12.30;99.90;;;;;;5089895;28;20434;-68
2022/10/01 12:37:04;;;;;;;0.40;0.40;;;12.30;99.90;;;;;;5089881;28;20514;-68
2022/10/01 12:40:04;;;;;;;0.40;0.40;;;12.40;99.90;;;;;;5089183;28;20529;-69
2022/10/01 12:43:19;;;;;;;0.50;0.50;;;12.50;99.90;;;;;;5089695;28;20878;-68
2022/10/01 12:46:19;;;;;;;0.40;0.40;;;12.50;99.90;;;;;;5089922;28;20460;-68
2022/10/01 12:49:21;;;;;;;1.17;0.60;;;12.50;99.90;;;;;;5089072;28;20946;-68
2022/10/01 12:52:17;;;;;;;1.07;0.97;;;12.50;99.90;;;;;;5089484;28;20452;-69
2022/10/01 12:55:21;;;;;;;0.63;0.63;;;12.60;99.90;;;;;;5090071;28;20468;-69
2022/10/01 12:58:20;;;;;;;0.50;0.50;;;12.70;99.90;;;;;;5089773;28;20938;-68
2022/10/01 13:01:20;;;;;;;0.40;0.40;;;12.60;99.90;;;;;;5089181;28;20470;-68
2022/10/01 13:04:39;;;;;;;0.53;0.53;;;12.70;99.90;;;;;;5088775;28;20461;-69
2022/10/01 13:07:45;;;;;;;0.40;0.40;;;12.80;99.90;;;;;;5088998;28;20837;-69
2022/10/01 13:10:47;;;;;;;2.83;1.23;;;13.10;99.90;;;;;;5089211;28;20427;-70
2022/10/01 13:13:37;;;;;;;0.50;0.50;;;13.40;99.90;;;;;;5075722;28;20458;-69
2022/10/01 13:16:30;;;;;;;0.40;0.40;;;13.50;99.90;;;;;;5075565;28;20513;-69
2022/10/01 13:19:25;;;;;;;1.03;1.00;;;13.60;99.90;;;;;;5074778;28;20507;-69
2022/10/01 13:22:21;;;;;;;0.50;0.50;;;13.60;99.90;;;;;;5074410;28;20608;-69
2022/10/01 13:25:24;;;;;;;0.40;0.40;;;13.90;99.90;;;;;;5075271;28;20520;-68
2022/10/01 13:28:16;;;;;;;0.50;0.50;;;14.00;99.90;;;;;;5059036;28;20434;-69
2022/10/01 13:31:13;;;;;;;0.40;0.40;;;14.00;99.90;;;;;;5054319;28;20431;-68
2022/10/01 13:34:02;;;;;;;0.40;0.40;;;14.10;99.90;;;;;;5055261;28;20481;-70
2022/10/01 13:36:54;;;;;;;0.40;0.40;;;14.30;99.90;;;;;;5054811;28;20429;-69
2022/10/01 13:39:43;;;;;;;0.40;0.40;;;14.50;99.90;;;;;;5054436;28;20451;-69
2022/10/01 13:42:43;;;;;;;0.40;0.40;;;14.80;99.90;;;;;;5055402;28;20583;-69
2022/10/01 13:45:41;;;;;;;0.47;0.47;;;14.90;99.90;;;;;;5055735;28;20207;-70
2022/10/01 13:48:34;;;;;;;0.40;0.40;;;15.20;99.90;;;;;;5054839;28;20450;-69
2022/10/01 13:51:32;;;;;;;0.40;0.40;;;15.40;99.90;;;;;;5055078;28;20324;-69
2022/10/01 13:54:27;;;;;;;0.40;0.40;;;15.40;99.90;;;;;;5055594;28;20253;-69
2022/10/01 13:57:28;;;;;;;0.40;0.40;;;15.40;99.90;;;;;;5056276;28;20432;-69
2022/10/01 14:00:23;;;;;;;0.40;0.40;;;15.10;99.90;;;;;;5055573;28;20854;-69
2022/10/01 14:03:32;;;;;;;0.40;0.40;;;14.90;99.90;;;;;;5055383;28;20775;-69
2022/10/01 14:06:29;;;;;;;0.40;0.40;;;14.70;99.90;;;;;;5056032;28;20617;-69
2022/10/01 14:09:22;;;;;;;0.40;0.40;;;14.60;99.90;;;;;;5055006;28;20500;-68
2022/10/01 14:18:42;;;;;;;0.40;0.40;;;14.10;99.90;;;;;;5055321;28;20526;-68
2022/10/01 14:21:49;;;;;;;0.40;0.40;;;14.00;99.90;;;;;;5056360;28;20551;-69
2022/10/01 14:24:50;;;;;;;0.40;0.40;;;13.90;99.90;;;;;;5055086;28;20543;-69
2022/10/01 14:27:45;;;;;;;0.47;0.47;;;13.80;99.90;;;;;;5065755;28;20799;-68
2022/10/01 14:30:42;;;;;;;0.50;0.50;;;13.80;99.90;;;;;;5073945;28;20473;-69
2022/10/01 14:33:49;;;;;;;0.50;0.50;;;13.70;99.90;;;;;;5073870;28;20453;-69
2022/10/01 14:36:44;;;;;;;0.60;0.43;;;13.70;99.90;;;;;;5081662;28;20451;-68
2022/10/01 14:39:32;;;;;;;0.40;0.40;;;13.60;99.90;;;;;;5086112;28;20506;-69
2022/10/01 14:42:23;;;;;;;0.50;0.50;;;13.70;99.90;;;;;;5088606;28;20455;-68
2022/10/01 14:45:15;;;;;;;0.40;0.40;;;13.80;99.90;;;;;;5086304;28;20424;-68
2022/10/01 14:48:06;;;;;;;0.40;0.40;;;13.90;99.90;;;;;;5086485;28;20461;-68
2022/10/01 14:50:57;;;;;;;0.30;0.30;;;13.90;99.90;;;;;;5080021;28;20518;-69
2022/10/01 14:53:45;;;;;;;0.40;0.40;;;13.90;99.90;;;;;;5085665;28;20502;-68
2022/10/01 14:56:34;;;;;;;0.50;0.50;;;14.00;99.90;;;;;;5075502;28;20439;-68
2022/10/01 14:59:31;;;;;;;0.40;0.40;;;13.90;99.90;;;;;;5077637;28;20419;-68
2022/10/01 15:02:21;;;;;;;0.40;0.40;;;14.00;99.90;;;;;;5074148;28;20463;-68
2022/10/01 15:05:20;;;;;;;0.40;0.40;;;14.00;99.90;;;;;;5074158;28;20488;-68
2022/10/01 15:08:13;;;;;;;0.40;0.40;;;14.00;99.90;;;;;;5072478;28;20430;-68
2022/10/01 15:11:04;;;;;;;0.40;0.40;;;14.00;99.90;;;;;;5072878;28;20438;-68
2022/10/01 15:13:55;;;;;;;0.40;0.40;;;14.00;99.90;;;;;;5072532;28;20878;-68
2022/10/01 15:16:43;;;;;;;0.63;0.63;;;14.10;99.90;;;;;;5074863;28;20573;-67